To NAV CANADA Home Page Login to a new session Search on AWWS site Feedback and Comments Disclaimer Vers la page française équivalente Tips FAQ What's new on the site To the Forecasts and Observations / NOTAM section To "File a Flight Plan" website Publications and other links Update of the User's profile FIC Telephone Numbers My Weather Data Folder Route Weather Data Regional Weather Data Local Weather Data To the Forecasts and Observations / NOTAM section
Request Generated 05/30/2015 at 12:07:10 UTC . Weather information available at that time is displayed.

METAR/TAF

SASKATOON/JOHN G. DIEFENBAKER INTL/SK    

METAR CYXE 301200Z 15008KT 15SM BKN120 BKN280 06/M02 A3033 RMK AC5CI2
SLP287=
METAR CYXE 301100Z 15010KT 15SM BKN280 05/M03 A3033 RMK CI6 SLP287=
METAR CYXE 301000Z 14010KT 15SM BKN280 06/M03 A3032 RMK CI6 SLP285=

TAF CYXE 301139Z 3012/3112 15010KT P6SM BKN280
FM301500 13012KT P6SM BKN100 OVC240
BECMG 3016/3018 14015G25KT
FM310000 15012KT P6SM SCT090 BKN220
FM310600 14012KT P6SM SKC
FM310900 13012KT P6SM BKN040
RMK NXT FCST BY 301800Z=
Your time UTC time
Weather data provided by Environment Canada and NAV CANADA